• Join FlightAware (Why Join?)
  • Login
  • US Flag 
04:29PM EDT


 

Airport Tracker/Info


-or-


 

Live Flight TrackerFlight Track Log ✈ N199CG ✈ 22-Mar-2014 ✈ KHBI - KCRE

Flight Track Log - Related Links

Times and Time Zones

All times are in EDT time to prevent confusion due to time zone crossing. See the N199CG flight status page for this flight to view local times or setup timezone preferences in your user account.

Time Position Orientation Groundspeed Altitude Reporting Facility
EDT Latitude Longitude Course Direction KTS MPH feet Rate Location/Type
11:22AM 35.5728 -79.8669 149° Southeast 167 192 3,200  Level Washington Center
11:23AM 35.5300 -79.8364 150° Southeast 167 192 4,600 1,260 Climbing Washington Center
11:24AM 35.4892 -79.8089 151° Southeast 167 192 5,800 1,260 Climbing Washington Center
11:25AM 35.4483 -79.7811 151° Southeast 172 198 7,200 1,260 Climbing Washington Center
11:26AM 35.4056 -79.7533 152° Southeast 177 204 8,400 1,200 Climbing Washington Center
11:27AM 35.4099 -79.7359 149° Southeast  Level Estimated
11:27AM 35.3647 -79.7283 153° Southeast 172 198 9,700  Level Washington Center
11:28AM 35.3219 -79.6981 150° Southeast 172 198 10,900 1,080 Climbing Washington Center
11:29AM 35.2769 -79.6678 151° Southeast 177 204 11,900 540 Climbing Washington Center
11:30AM 35.2239 -79.6347 153° Southeast 200 230 12,000  Climbing Washington Center
11:31AM 35.1625 -79.5961 153° Southeast 237 273 12,000  Level Washington Center
11:32AM 35.1075 -79.5603 152° Southeast 242 278 12,000  Level Washington Center
11:33AM 35.0422 -79.5164 151° Southeast 242 278 12,000  Level Washington Center
11:34AM 34.9869 -79.4783 151° Southeast 242 278 12,000  Level Washington Center
11:35AM 34.9586 -79.3908 112° Southeast 247 284 12,000  Level Washington Center
11:36AM 34.9364 -79.3036 107° East 253 291 12,000  Level Washington Center
11:37AM 34.9158 -79.2192 107° East 259 298 12,000  Level Washington Center
11:38AM 34.8956 -79.1322 106° East 264 304 12,000 -60 Level Washington Center
11:39AM 34.8514 -79.0769 134° Southeast 229 264 11,900 -480 Descending Washington Center
11:40AM 34.7917 -79.0492 159° South 234 269 11,100 -300 Descending Washington Center
11:42AM 34.6294 -78.9969 165° South 241 277 11,000 -60 Descending Jacksonville Center
11:43AM 34.5661 -78.9744 164° South 241 277 11,000  Level Jacksonville Center
11:44AM 34.5072 -78.9569 166° South 236 272 11,000 -360 Level Jacksonville Center
11:45AM 34.4464 -78.9422 169° South 230 265 10,300 -1,200 Descending Jacksonville Center
11:46AM 34.3850 -78.9172 161° South 230 265 8,600 -1,740 Descending Jacksonville Center
11:47AM 34.3197 -78.8978 166° South 230 265 6,900 -1,740 Descending Jacksonville Center
11:48AM 34.2586 -78.8753 163° South 230 265 5,200 -1,500 Descending Jacksonville Center
11:49AM 34.1975 -78.8556 165° South 230 265 4,000 -660 Descending Jacksonville Center
11:50AM 34.1447 -78.8381 165° South 218 251 3,900 -60 Descending Jacksonville Center
11:51AM 34.0983 -78.8200 162° South 198 228 3,900 -60 Level Jacksonville Center
11:52AM 34.0497 -78.8072 168° South 186 214 3,800 -120 Descending Jacksonville Center
11:54AM 33.9851 -78.7703 171° South  Level FlightAware Approximate
12:01PM 33.8117 -78.7239 171° South  Level Estimated
12:02PM 33.8117 -78.7239 153° Southeast  Level Estimated
12:03PM 33.8117 -78.7239 171° South  Level Estimated
12:04PM 33.8117 -78.7239 153° Southeast  Level Estimated